sensor_id;sensor_type;location;lat;lon;timestamp;P1;durP1;ratioP1;P2;durP2;ratioP2
3217;SDS011;1621;49.702;8.618;2023-12-14T00:01:43;19.27;;;16.90;;
3217;SDS011;1621;49.702;8.618;2023-12-14T00:04:12;20.90;;;16.97;;
3217;SDS011;1621;49.702;8.618;2023-12-14T00:06:38;21.43;;;17.67;;
3217;SDS011;1621;49.702;8.618;2023-12-14T00:09:05;19.50;;;15.50;;
3217;SDS011;1621;49.702;8.618;2023-12-14T00:11:31;18.77;;;15.30;;
3217;SDS011;1621;49.702;8.618;2023-12-14T00:13:57;21.23;;;15.70;;
3217;SDS011;1621;49.702;8.618;2023-12-14T00:16:23;19.70;;;16.30;;
3217;SDS011;1621;49.702;8.618;2023-12-14T00:18:49;18.37;;;15.50;;
3217;SDS011;1621;49.702;8.618;2023-12-14T00:21:17;20.43;;;16.70;;
3217;SDS011;1621;49.702;8.618;2023-12-14T00:23:43;17.57;;;15.47;;
3217;SDS011;1621;49.702;8.618;2023-12-14T00:26:09;19.30;;;15.07;;
3217;SDS011;1621;49.702;8.618;2023-12-14T00:28:36;18.13;;;15.20;;
3217;SDS011;1621;49.702;8.618;2023-12-14T00:31:02;18.70;;;14.20;;
3217;SDS011;1621;49.702;8.618;2023-12-14T00:33:28;18.00;;;14.93;;
3217;SDS011;1621;49.702;8.618;2023-12-14T00:35:54;21.97;;;16.10;;
3217;SDS011;1621;49.702;8.618;2023-12-14T00:38:22;22.13;;;16.13;;
3217;SDS011;1621;49.702;8.618;2023-12-14T00:40:48;23.63;;;16.57;;
3217;SDS011;1621;49.702;8.618;2023-12-14T00:43:14;17.43;;;15.00;;
3217;SDS011;1621;49.702;8.618;2023-12-14T00:45:41;19.20;;;15.53;;
3217;SDS011;1621;49.702;8.618;2023-12-14T00:48:07;17.33;;;15.37;;
3217;SDS011;1621;49.702;8.618;2023-12-14T00:50:33;25.57;;;17.20;;
3217;SDS011;1621;49.702;8.618;2023-12-14T00:53:00;18.50;;;16.37;;
3217;SDS011;1621;49.702;8.618;2023-12-14T00:55:27;21.03;;;17.17;;
3217;SDS011;1621;49.702;8.618;2023-12-14T00:57:53;18.30;;;15.37;;
3217;SDS011;1621;49.702;8.618;2023-12-14T01:00:20;19.77;;;16.50;;
3217;SDS011;1621;49.702;8.618;2023-12-14T01:02:46;23.00;;;17.37;;
3217;SDS011;1621;49.702;8.618;2023-12-14T01:05:12;19.60;;;16.40;;
3217;SDS011;1621;49.702;8.618;2023-12-14T01:07:38;17.50;;;15.40;;
3217;SDS011;1621;49.702;8.618;2023-12-14T01:10:05;22.40;;;17.90;;
3217;SDS011;1621;49.702;8.618;2023-12-14T01:12:33;19.40;;;16.33;;
3217;SDS011;1621;49.702;8.618;2023-12-14T01:14:59;20.63;;;15.60;;
3217;SDS011;1621;49.702;8.618;2023-12-14T01:17:25;21.00;;;16.20;;
3217;SDS011;1621;49.702;8.618;2023-12-14T01:19:52;19.23;;;16.03;;
3217;SDS011;1621;49.702;8.618;2023-12-14T01:22:19;20.17;;;16.67;;
3217;SDS011;1621;49.702;8.618;2023-12-14T01:24:45;21.73;;;16.90;;
3217;SDS011;1621;49.702;8.618;2023-12-14T01:27:11;20.90;;;15.63;;
3217;SDS011;1621;49.702;8.618;2023-12-14T01:29:40;20.47;;;17.43;;
3217;SDS011;1621;49.702;8.618;2023-12-14T01:32:06;21.93;;;17.43;;
3217;SDS011;1621;49.702;8.618;2023-12-14T01:34:32;20.90;;;17.40;;
3217;SDS011;1621;49.702;8.618;2023-12-14T01:36:59;22.10;;;16.63;;
3217;SDS011;1621;49.702;8.618;2023-12-14T01:39:25;23.40;;;18.43;;
3217;SDS011;1621;49.702;8.618;2023-12-14T01:41:51;21.60;;;18.50;;
3217;SDS011;1621;49.702;8.618;2023-12-14T01:44:17;27.40;;;20.33;;
3217;SDS011;1621;49.702;8.618;2023-12-14T01:46:45;23.43;;;20.43;;
3217;SDS011;1621;49.702;8.618;2023-12-14T01:49:11;25.67;;;19.00;;
3217;SDS011;1621;49.702;8.618;2023-12-14T01:51:37;25.70;;;19.97;;
3217;SDS011;1621;49.702;8.618;2023-12-14T01:54:04;23.40;;;19.30;;
3217;SDS011;1621;49.702;8.618;2023-12-14T01:56:30;25.40;;;19.70;;
3217;SDS011;1621;49.702;8.618;2023-12-14T01:58:56;26.00;;;19.57;;
3217;SDS011;1621;49.702;8.618;2023-12-14T02:01:23;28.73;;;22.07;;
3217;SDS011;1621;49.702;8.618;2023-12-14T02:03:55;31.07;;;22.87;;
3217;SDS011;1621;49.702;8.618;2023-12-14T02:06:21;32.47;;;23.20;;
3217;SDS011;1621;49.702;8.618;2023-12-14T02:08:47;30.40;;;22.93;;
3217;SDS011;1621;49.702;8.618;2023-12-14T02:11:14;33.60;;;24.33;;
3217;SDS011;1621;49.702;8.618;2023-12-14T02:13:40;34.30;;;23.10;;
3217;SDS011;1621;49.702;8.618;2023-12-14T02:16:06;35.07;;;23.87;;
3217;SDS011;1621;49.702;8.618;2023-12-14T02:18:33;35.33;;;24.93;;
3217;SDS011;1621;49.702;8.618;2023-12-14T02:21:00;37.90;;;24.87;;
3217;SDS011;1621;49.702;8.618;2023-12-14T02:23:28;35.37;;;25.90;;
3217;SDS011;1621;49.702;8.618;2023-12-14T02:25:54;35.53;;;24.83;;
3217;SDS011;1621;49.702;8.618;2023-12-14T02:28:21;34.57;;;24.43;;
3217;SDS011;1621;49.702;8.618;2023-12-14T02:30:47;35.80;;;24.93;;
3217;SDS011;1621;49.702;8.618;2023-12-14T02:33:13;40.20;;;25.03;;
3217;SDS011;1621;49.702;8.618;2023-12-14T02:35:40;39.93;;;24.90;;
3217;SDS011;1621;49.702;8.618;2023-12-14T02:38:06;38.87;;;25.50;;
3217;SDS011;1621;49.702;8.618;2023-12-14T02:40:33;42.43;;;26.60;;
3217;SDS011;1621;49.702;8.618;2023-12-14T02:43:00;37.40;;;23.60;;
3217;SDS011;1621;49.702;8.618;2023-12-14T02:45:26;36.87;;;23.80;;
3217;SDS011;1621;49.702;8.618;2023-12-14T02:47:52;35.20;;;22.77;;
3217;SDS011;1621;49.702;8.618;2023-12-14T02:50:19;32.60;;;23.53;;
3217;SDS011;1621;49.702;8.618;2023-12-14T02:52:45;37.93;;;23.70;;
3217;SDS011;1621;49.702;8.618;2023-12-14T02:55:11;39.17;;;25.47;;
3217;SDS011;1621;49.702;8.618;2023-12-14T02:57:39;35.33;;;23.90;;
3217;SDS011;1621;49.702;8.618;2023-12-14T03:00:06;37.67;;;24.37;;
3217;SDS011;1621;49.702;8.618;2023-12-14T03:02:32;38.30;;;24.33;;
3217;SDS011;1621;49.702;8.618;2023-12-14T03:04:58;37.70;;;22.97;;
3217;SDS011;1621;49.702;8.618;2023-12-14T03:07:25;40.60;;;24.17;;
3217;SDS011;1621;49.702;8.618;2023-12-14T03:09:51;37.47;;;24.17;;
3217;SDS011;1621;49.702;8.618;2023-12-14T03:12:17;38.60;;;23.40;;
3217;SDS011;1621;49.702;8.618;2023-12-14T03:14:45;33.87;;;23.40;;
3217;SDS011;1621;49.702;8.618;2023-12-14T03:17:11;33.87;;;22.30;;
3217;SDS011;1621;49.702;8.618;2023-12-14T03:19:38;35.07;;;22.50;;
3217;SDS011;1621;49.702;8.618;2023-12-14T03:22:04;34.30;;;21.97;;
3217;SDS011;1621;49.702;8.618;2023-12-14T03:24:30;34.43;;;21.47;;
3217;SDS011;1621;49.702;8.618;2023-12-14T03:26:57;31.37;;;21.00;;
3217;SDS011;1621;49.702;8.618;2023-12-14T03:29:23;32.33;;;20.50;;
3217;SDS011;1621;49.702;8.618;2023-12-14T03:31:50;32.33;;;21.77;;
3217;SDS011;1621;49.702;8.618;2023-12-14T03:34:17;36.57;;;21.40;;
3217;SDS011;1621;49.702;8.618;2023-12-14T03:36:43;32.50;;;21.47;;
3217;SDS011;1621;49.702;8.618;2023-12-14T03:39:09;34.27;;;23.20;;
3217;SDS011;1621;49.702;8.618;2023-12-14T03:41:36;30.93;;;21.47;;
3217;SDS011;1621;49.702;8.618;2023-12-14T03:44:02;30.57;;;21.57;;
3217;SDS011;1621;49.702;8.618;2023-12-14T03:46:29;32.73;;;22.20;;
3217;SDS011;1621;49.702;8.618;2023-12-14T03:48:56;32.37;;;21.97;;
3217;SDS011;1621;49.702;8.618;2023-12-14T03:51:22;30.30;;;21.20;;
3217;SDS011;1621;49.702;8.618;2023-12-14T03:53:49;32.13;;;20.53;;
3217;SDS011;1621;49.702;8.618;2023-12-14T03:56:15;28.47;;;19.67;;
3217;SDS011;1621;49.702;8.618;2023-12-14T03:58:41;28.50;;;20.70;;
3217;SDS011;1621;49.702;8.618;2023-12-14T04:01:07;29.97;;;20.10;;
3217;SDS011;1621;49.702;8.618;2023-12-14T04:03:33;34.90;;;21.80;;
3217;SDS011;1621;49.702;8.618;2023-12-14T04:06:01;29.47;;;20.53;;
3217;SDS011;1621;49.702;8.618;2023-12-14T04:08:27;26.53;;;19.13;;
3217;SDS011;1621;49.702;8.618;2023-12-14T04:10:54;27.97;;;19.07;;
3217;SDS011;1621;49.702;8.618;2023-12-14T04:13:20;28.30;;;20.03;;
3217;SDS011;1621;49.702;8.618;2023-12-14T04:15:46;26.77;;;19.10;;
3217;SDS011;1621;49.702;8.618;2023-12-14T04:18:12;26.00;;;19.27;;
3217;SDS011;1621;49.702;8.618;2023-12-14T04:20:39;29.03;;;19.17;;
3217;SDS011;1621;49.702;8.618;2023-12-14T04:23:06;28.80;;;18.47;;
3217;SDS011;1621;49.702;8.618;2023-12-14T04:25:32;29.00;;;19.47;;
3217;SDS011;1621;49.702;8.618;2023-12-14T04:27:59;25.13;;;17.83;;
3217;SDS011;1621;49.702;8.618;2023-12-14T04:30:25;27.23;;;20.00;;
3217;SDS011;1621;49.702;8.618;2023-12-14T04:32:51;28.70;;;20.07;;
3217;SDS011;1621;49.702;8.618;2023-12-14T04:35:18;25.70;;;16.97;;
3217;SDS011;1621;49.702;8.618;2023-12-14T04:37:47;24.70;;;17.50;;
3217;SDS011;1621;49.702;8.618;2023-12-14T04:40:14;24.10;;;16.57;;
3217;SDS011;1621;49.702;8.618;2023-12-14T04:42:41;21.50;;;16.13;;
3217;SDS011;1621;49.702;8.618;2023-12-14T04:45:07;26.20;;;17.70;;
3217;SDS011;1621;49.702;8.618;2023-12-14T04:47:34;29.37;;;18.70;;
3217;SDS011;1621;49.702;8.618;2023-12-14T04:50:00;26.43;;;17.73;;
3217;SDS011;1621;49.702;8.618;2023-12-14T04:52:27;26.17;;;17.20;;
3217;SDS011;1621;49.702;8.618;2023-12-14T04:54:53;29.83;;;18.23;;
3217;SDS011;1621;49.702;8.618;2023-12-14T04:57:20;26.00;;;16.70;;
3217;SDS011;1621;49.702;8.618;2023-12-14T04:59:47;27.80;;;17.83;;
3217;SDS011;1621;49.702;8.618;2023-12-14T05:02:13;30.90;;;17.20;;
3217;SDS011;1621;49.702;8.618;2023-12-14T05:04:39;25.00;;;17.03;;
3217;SDS011;1621;49.702;8.618;2023-12-14T05:07:05;27.80;;;17.97;;
3217;SDS011;1621;49.702;8.618;2023-12-14T05:09:32;25.27;;;16.83;;
3217;SDS011;1621;49.702;8.618;2023-12-14T05:11:58;27.00;;;18.23;;
3217;SDS011;1621;49.702;8.618;2023-12-14T05:14:25;30.53;;;19.63;;
3217;SDS011;1621;49.702;8.618;2023-12-14T05:16:53;25.83;;;17.80;;
3217;SDS011;1621;49.702;8.618;2023-12-14T05:19:20;26.60;;;17.70;;
3217;SDS011;1621;49.702;8.618;2023-12-14T05:21:46;26.37;;;17.30;;
3217;SDS011;1621;49.702;8.618;2023-12-14T05:24:13;23.63;;;16.80;;
3217;SDS011;1621;49.702;8.618;2023-12-14T05:26:39;23.13;;;17.10;;
3217;SDS011;1621;49.702;8.618;2023-12-14T05:29:05;22.90;;;15.70;;
3217;SDS011;1621;49.702;8.618;2023-12-14T05:31:33;22.77;;;16.50;;
3217;SDS011;1621;49.702;8.618;2023-12-14T05:33:59;26.87;;;16.87;;
3217;SDS011;1621;49.702;8.618;2023-12-14T05:36:25;23.47;;;16.77;;
3217;SDS011;1621;49.702;8.618;2023-12-14T05:38:51;24.70;;;17.30;;
3217;SDS011;1621;49.702;8.618;2023-12-14T05:41:18;24.37;;;17.47;;
3217;SDS011;1621;49.702;8.618;2023-12-14T05:43:44;23.50;;;16.90;;
3217;SDS011;1621;49.702;8.618;2023-12-14T05:46:19;25.60;;;16.70;;
3217;SDS011;1621;49.702;8.618;2023-12-14T05:48:47;24.40;;;18.30;;
3217;SDS011;1621;49.702;8.618;2023-12-14T05:51:13;26.53;;;18.40;;
3217;SDS011;1621;49.702;8.618;2023-12-14T05:53:51;25.80;;;18.40;;
3217;SDS011;1621;49.702;8.618;2023-12-14T05:56:17;32.57;;;19.73;;
3217;SDS011;1621;49.702;8.618;2023-12-14T05:58:43;25.33;;;17.67;;
3217;SDS011;1621;49.702;8.618;2023-12-14T06:01:10;27.50;;;18.57;;
3217;SDS011;1621;49.702;8.618;2023-12-14T06:03:36;24.93;;;18.43;;
3217;SDS011;1621;49.702;8.618;2023-12-14T06:06:04;21.77;;;16.90;;
3217;SDS011;1621;49.702;8.618;2023-12-14T06:08:30;23.13;;;17.57;;
3217;SDS011;1621;49.702;8.618;2023-12-14T06:10:57;22.90;;;17.37;;
3217;SDS011;1621;49.702;8.618;2023-12-14T06:13:23;23.00;;;17.13;;
3217;SDS011;1621;49.702;8.618;2023-12-14T06:15:49;25.77;;;17.17;;
3217;SDS011;1621;49.702;8.618;2023-12-14T06:18:16;24.80;;;17.73;;
3217;SDS011;1621;49.702;8.618;2023-12-14T06:20:43;26.53;;;19.10;;
3217;SDS011;1621;49.702;8.618;2023-12-14T06:23:10;22.57;;;17.10;;
3217;SDS011;1621;49.702;8.618;2023-12-14T06:25:36;22.73;;;17.00;;
3217;SDS011;1621;49.702;8.618;2023-12-14T06:28:03;24.13;;;19.03;;
3217;SDS011;1621;49.702;8.618;2023-12-14T06:30:29;27.87;;;21.83;;
3217;SDS011;1621;49.702;8.618;2023-12-14T06:32:55;23.40;;;18.90;;
3217;SDS011;1621;49.702;8.618;2023-12-14T06:35:22;25.00;;;19.80;;
3217;SDS011;1621;49.702;8.618;2023-12-14T06:37:48;25.80;;;18.70;;
3217;SDS011;1621;49.702;8.618;2023-12-14T06:40:15;24.93;;;19.27;;
3217;SDS011;1621;49.702;8.618;2023-12-14T06:42:42;25.00;;;17.93;;
3217;SDS011;1621;49.702;8.618;2023-12-14T06:45:08;23.27;;;17.47;;
3217;SDS011;1621;49.702;8.618;2023-12-14T06:47:35;25.20;;;19.30;;
3217;SDS011;1621;49.702;8.618;2023-12-14T06:50:01;27.03;;;19.93;;
3217;SDS011;1621;49.702;8.618;2023-12-14T06:52:27;27.53;;;18.47;;
3217;SDS011;1621;49.702;8.618;2023-12-14T06:54:54;26.50;;;19.03;;
3217;SDS011;1621;49.702;8.618;2023-12-14T06:57:22;30.40;;;18.83;;
3217;SDS011;1621;49.702;8.618;2023-12-14T06:59:48;23.77;;;18.03;;
3217;SDS011;1621;49.702;8.618;2023-12-14T07:02:14;26.13;;;19.30;;
3217;SDS011;1621;49.702;8.618;2023-12-14T07:04:40;26.10;;;19.57;;
3217;SDS011;1621;49.702;8.618;2023-12-14T07:07:06;31.20;;;22.37;;
3217;SDS011;1621;49.702;8.618;2023-12-14T07:09:34;26.27;;;20.40;;
3217;SDS011;1621;49.702;8.618;2023-12-14T07:12:01;27.20;;;21.23;;
3217;SDS011;1621;49.702;8.618;2023-12-14T07:14:29;30.60;;;22.20;;
3217;SDS011;1621;49.702;8.618;2023-12-14T07:16:55;30.73;;;23.43;;
3217;SDS011;1621;49.702;8.618;2023-12-14T07:19:21;29.13;;;21.67;;
3217;SDS011;1621;49.702;8.618;2023-12-14T07:21:48;26.90;;;19.93;;
3217;SDS011;1621;49.702;8.618;2023-12-14T07:24:14;30.97;;;21.57;;
3217;SDS011;1621;49.702;8.618;2023-12-14T07:26:40;34.53;;;24.00;;
3217;SDS011;1621;49.702;8.618;2023-12-14T07:29:06;31.53;;;21.97;;
3217;SDS011;1621;49.702;8.618;2023-12-14T07:31:34;33.53;;;23.10;;
3217;SDS011;1621;49.702;8.618;2023-12-14T07:34:00;30.17;;;22.27;;
3217;SDS011;1621;49.702;8.618;2023-12-14T07:36:26;30.43;;;21.50;;
3217;SDS011;1621;49.702;8.618;2023-12-14T07:38:53;35.90;;;20.83;;
3217;SDS011;1621;49.702;8.618;2023-12-14T07:41:19;29.70;;;21.43;;
3217;SDS011;1621;49.702;8.618;2023-12-14T07:43:48;31.40;;;22.37;;
3217;SDS011;1621;49.702;8.618;2023-12-14T07:46:14;29.00;;;22.03;;
3217;SDS011;1621;49.702;8.618;2023-12-14T07:48:42;28.60;;;20.77;;
3217;SDS011;1621;49.702;8.618;2023-12-14T07:51:08;31.20;;;22.07;;
3217;SDS011;1621;49.702;8.618;2023-12-14T07:53:34;29.60;;;22.70;;
3217;SDS011;1621;49.702;8.618;2023-12-14T07:56:00;33.17;;;22.10;;
3217;SDS011;1621;49.702;8.618;2023-12-14T07:58:27;30.23;;;21.77;;
3217;SDS011;1621;49.702;8.618;2023-12-14T08:00:54;27.87;;;20.60;;
3217;SDS011;1621;49.702;8.618;2023-12-14T08:03:20;27.70;;;19.83;;
3217;SDS011;1621;49.702;8.618;2023-12-14T08:05:48;28.87;;;21.07;;
3217;SDS011;1621;49.702;8.618;2023-12-14T08:08:14;29.10;;;20.90;;
3217;SDS011;1621;49.702;8.618;2023-12-14T08:10:41;31.57;;;21.17;;
3217;SDS011;1621;49.702;8.618;2023-12-14T08:13:07;28.80;;;21.03;;
3217;SDS011;1621;49.702;8.618;2023-12-14T08:15:33;30.23;;;22.20;;
3217;SDS011;1621;49.702;8.618;2023-12-14T08:17:59;29.33;;;21.83;;
3217;SDS011;1621;49.702;8.618;2023-12-14T08:20:26;30.07;;;22.77;;
3217;SDS011;1621;49.702;8.618;2023-12-14T08:22:53;33.17;;;24.40;;
3217;SDS011;1621;49.702;8.618;2023-12-14T08:25:19;32.00;;;22.13;;
3217;SDS011;1621;49.702;8.618;2023-12-14T08:27:46;35.90;;;24.77;;
3217;SDS011;1621;49.702;8.618;2023-12-14T08:30:12;31.40;;;22.80;;
3217;SDS011;1621;49.702;8.618;2023-12-14T08:32:39;30.43;;;23.00;;
3217;SDS011;1621;49.702;8.618;2023-12-14T08:35:05;34.63;;;23.33;;
3217;SDS011;1621;49.702;8.618;2023-12-14T08:37:31;34.83;;;25.13;;
3217;SDS011;1621;49.702;8.618;2023-12-14T08:39:59;29.77;;;23.50;;
3217;SDS011;1621;49.702;8.618;2023-12-14T08:42:25;33.33;;;25.00;;
3217;SDS011;1621;49.702;8.618;2023-12-14T08:44:51;34.40;;;24.73;;
3217;SDS011;1621;49.702;8.618;2023-12-14T08:47:18;30.53;;;23.20;;
3217;SDS011;1621;49.702;8.618;2023-12-14T08:49:44;29.70;;;23.67;;
3217;SDS011;1621;49.702;8.618;2023-12-14T08:52:10;32.80;;;23.57;;
3217;SDS011;1621;49.702;8.618;2023-12-14T08:54:36;31.93;;;23.00;;
3217;SDS011;1621;49.702;8.618;2023-12-14T08:57:04;29.27;;;21.17;;
3217;SDS011;1621;49.702;8.618;2023-12-14T08:59:31;30.60;;;20.50;;
3217;SDS011;1621;49.702;8.618;2023-12-14T09:01:57;32.87;;;21.97;;
3217;SDS011;1621;49.702;8.618;2023-12-14T09:04:23;32.37;;;23.23;;
3217;SDS011;1621;49.702;8.618;2023-12-14T09:06:49;30.80;;;22.90;;
3217;SDS011;1621;49.702;8.618;2023-12-14T09:09:16;26.47;;;21.57;;
3217;SDS011;1621;49.702;8.618;2023-12-14T09:11:43;29.93;;;22.60;;
3217;SDS011;1621;49.702;8.618;2023-12-14T09:14:11;29.87;;;22.23;;
3217;SDS011;1621;49.702;8.618;2023-12-14T09:16:37;27.60;;;22.20;;
3217;SDS011;1621;49.702;8.618;2023-12-14T09:19:03;29.30;;;22.70;;
3217;SDS011;1621;49.702;8.618;2023-12-14T09:21:30;25.80;;;21.20;;
3217;SDS011;1621;49.702;8.618;2023-12-14T09:23:56;27.87;;;21.80;;
3217;SDS011;1621;49.702;8.618;2023-12-14T09:26:22;30.70;;;21.93;;
3217;SDS011;1621;49.702;8.618;2023-12-14T09:28:48;28.47;;;21.37;;
3217;SDS011;1621;49.702;8.618;2023-12-14T09:31:16;34.20;;;21.73;;
3217;SDS011;1621;49.702;8.618;2023-12-14T09:33:42;31.13;;;21.93;;
3217;SDS011;1621;49.702;8.618;2023-12-14T09:36:09;28.53;;;22.00;;
3217;SDS011;1621;49.702;8.618;2023-12-14T09:38:35;29.40;;;21.57;;
3217;SDS011;1621;49.702;8.618;2023-12-14T09:41:02;26.90;;;21.67;;
3217;SDS011;1621;49.702;8.618;2023-12-14T09:43:29;28.00;;;20.33;;
3217;SDS011;1621;49.702;8.618;2023-12-14T09:45:55;25.20;;;19.80;;
3217;SDS011;1621;49.702;8.618;2023-12-14T09:48:23;26.83;;;18.53;;
3217;SDS011;1621;49.702;8.618;2023-12-14T09:50:50;25.73;;;17.53;;
3217;SDS011;1621;49.702;8.618;2023-12-14T09:53:16;23.10;;;15.13;;
3217;SDS011;1621;49.702;8.618;2023-12-14T09:55:43;22.60;;;18.10;;
3217;SDS011;1621;49.702;8.618;2023-12-14T09:58:09;23.70;;;15.53;;
3217;SDS011;1621;49.702;8.618;2023-12-14T10:00:38;22.50;;;16.27;;
3217;SDS011;1621;49.702;8.618;2023-12-14T10:03:18;21.00;;;15.80;;
3217;SDS011;1621;49.702;8.618;2023-12-14T10:05:45;21.80;;;16.10;;
3217;SDS011;1621;49.702;8.618;2023-12-14T10:08:12;21.57;;;15.63;;
3217;SDS011;1621;49.702;8.618;2023-12-14T10:10:38;19.27;;;15.20;;
3217;SDS011;1621;49.702;8.618;2023-12-14T10:13:04;20.33;;;15.57;;
3217;SDS011;1621;49.702;8.618;2023-12-14T10:15:36;20.87;;;15.60;;
3217;SDS011;1621;49.702;8.618;2023-12-14T10:18:05;21.03;;;16.17;;
3217;SDS011;1621;49.702;8.618;2023-12-14T10:20:32;21.63;;;16.17;;
3217;SDS011;1621;49.702;8.618;2023-12-14T10:22:59;21.80;;;17.30;;
3217;SDS011;1621;49.702;8.618;2023-12-14T10:25:25;22.87;;;18.20;;
3217;SDS011;1621;49.702;8.618;2023-12-14T10:27:52;19.10;;;15.60;;
3217;SDS011;1621;49.702;8.618;2023-12-14T10:30:19;23.70;;;16.70;;
3217;SDS011;1621;49.702;8.618;2023-12-14T10:32:45;21.20;;;16.47;;
3217;SDS011;1621;49.702;8.618;2023-12-14T10:35:13;23.10;;;16.37;;
3217;SDS011;1621;49.702;8.618;2023-12-14T10:37:41;25.30;;;16.57;;
3217;SDS011;1621;49.702;8.618;2023-12-14T10:40:09;21.60;;;16.37;;
3217;SDS011;1621;49.702;8.618;2023-12-14T10:42:36;24.30;;;16.83;;
3217;SDS011;1621;49.702;8.618;2023-12-14T10:45:03;25.80;;;17.80;;
3217;SDS011;1621;49.702;8.618;2023-12-14T10:47:29;25.47;;;19.03;;
3217;SDS011;1621;49.702;8.618;2023-12-14T10:49:56;27.37;;;17.33;;
3217;SDS011;1621;49.702;8.618;2023-12-14T10:52:23;21.40;;;16.90;;
3217;SDS011;1621;49.702;8.618;2023-12-14T10:54:51;23.80;;;16.93;;
3217;SDS011;1621;49.702;8.618;2023-12-14T10:57:20;27.47;;;17.50;;
3217;SDS011;1621;49.702;8.618;2023-12-14T10:59:48;21.87;;;17.73;;
3217;SDS011;1621;49.702;8.618;2023-12-14T11:02:14;21.63;;;16.30;;
3217;SDS011;1621;49.702;8.618;2023-12-14T11:10:06;24.20;;;17.90;;
3217;SDS011;1621;49.702;8.618;2023-12-14T11:12:34;26.03;;;16.37;;
3217;SDS011;1621;49.702;8.618;2023-12-14T11:15:00;19.83;;;15.57;;
3217;SDS011;1621;49.702;8.618;2023-12-14T11:17:28;23.73;;;16.50;;
3217;SDS011;1621;49.702;8.618;2023-12-14T11:19:56;20.40;;;16.90;;
3217;SDS011;1621;49.702;8.618;2023-12-14T11:22:23;22.90;;;16.17;;
3217;SDS011;1621;49.702;8.618;2023-12-14T11:24:53;23.77;;;17.93;;
3217;SDS011;1621;49.702;8.618;2023-12-14T11:27:20;25.57;;;18.43;;
3217;SDS011;1621;49.702;8.618;2023-12-14T11:29:48;21.97;;;16.87;;
3217;SDS011;1621;49.702;8.618;2023-12-14T11:32:14;23.30;;;18.00;;
3217;SDS011;1621;49.702;8.618;2023-12-14T11:34:42;21.00;;;16.40;;
3217;SDS011;1621;49.702;8.618;2023-12-14T11:37:08;21.90;;;16.97;;
3217;SDS011;1621;49.702;8.618;2023-12-14T11:39:35;20.90;;;16.00;;
3217;SDS011;1621;49.702;8.618;2023-12-14T11:42:02;20.80;;;15.97;;
3217;SDS011;1621;49.702;8.618;2023-12-14T11:44:29;19.17;;;14.50;;
3217;SDS011;1621;49.702;8.618;2023-12-14T11:46:56;21.57;;;13.97;;
3217;SDS011;1621;49.702;8.618;2023-12-14T11:49:24;19.63;;;14.63;;
3217;SDS011;1621;49.702;8.618;2023-12-14T11:51:50;18.33;;;13.67;;
3217;SDS011;1621;49.702;8.618;2023-12-14T11:54:16;20.43;;;15.07;;
3217;SDS011;1621;49.702;8.618;2023-12-14T11:56:45;20.93;;;14.87;;
3217;SDS011;1621;49.702;8.618;2023-12-14T11:59:11;20.97;;;14.50;;
3217;SDS011;1621;49.702;8.618;2023-12-14T12:01:38;19.90;;;13.77;;
3217;SDS011;1621;49.702;8.618;2023-12-14T12:04:09;17.70;;;13.20;;
3217;SDS011;1621;49.702;8.618;2023-12-14T12:06:36;19.63;;;12.37;;
3217;SDS011;1621;49.702;8.618;2023-12-14T12:09:02;14.80;;;11.27;;
3217;SDS011;1621;49.702;8.618;2023-12-14T12:11:33;16.10;;;10.33;;
3217;SDS011;1621;49.702;8.618;2023-12-14T12:13:59;13.80;;;10.67;;
3217;SDS011;1621;49.702;8.618;2023-12-14T12:16:25;12.87;;;9.60;;
3217;SDS011;1621;49.702;8.618;2023-12-14T12:18:51;14.87;;;9.00;;
3217;SDS011;1621;49.702;8.618;2023-12-14T12:21:19;13.27;;;9.10;;
3217;SDS011;1621;49.702;8.618;2023-12-14T12:23:45;12.13;;;8.10;;
3217;SDS011;1621;49.702;8.618;2023-12-14T12:26:11;14.93;;;9.13;;
3217;SDS011;1621;49.702;8.618;2023-12-14T12:28:38;11.97;;;8.47;;
3217;SDS011;1621;49.702;8.618;2023-12-14T12:31:04;14.53;;;9.90;;
3217;SDS011;1621;49.702;8.618;2023-12-14T12:33:30;12.13;;;8.63;;
3217;SDS011;1621;49.702;8.618;2023-12-14T12:36:02;12.13;;;8.03;;
3217;SDS011;1621;49.702;8.618;2023-12-14T12:38:30;10.60;;;8.03;;
3217;SDS011;1621;49.702;8.618;2023-12-14T12:40:56;13.00;;;8.30;;
3217;SDS011;1621;49.702;8.618;2023-12-14T12:43:24;12.03;;;7.87;;
3217;SDS011;1621;49.702;8.618;2023-12-14T12:45:51;10.33;;;7.20;;
3217;SDS011;1621;49.702;8.618;2023-12-14T12:48:17;12.10;;;7.80;;
3217;SDS011;1621;49.702;8.618;2023-12-14T12:50:43;10.40;;;7.77;;
3217;SDS011;1621;49.702;8.618;2023-12-14T12:53:10;12.33;;;8.57;;
3217;SDS011;1621;49.702;8.618;2023-12-14T12:55:37;10.93;;;7.87;;
3217;SDS011;1621;49.702;8.618;2023-12-14T12:58:03;13.60;;;8.40;;
3217;SDS011;1621;49.702;8.618;2023-12-14T13:00:31;11.67;;;8.30;;
3217;SDS011;1621;49.702;8.618;2023-12-14T13:03:00;8.90;;;6.83;;
3217;SDS011;1621;49.702;8.618;2023-12-14T13:05:27;10.90;;;7.50;;
3217;SDS011;1621;49.702;8.618;2023-12-14T13:07:54;9.93;;;7.07;;
3217;SDS011;1621;49.702;8.618;2023-12-14T13:10:22;11.73;;;8.10;;
3217;SDS011;1621;49.702;8.618;2023-12-14T13:12:53;10.50;;;8.13;;
3217;SDS011;1621;49.702;8.618;2023-12-14T13:15:19;11.77;;;8.60;;
3217;SDS011;1621;49.702;8.618;2023-12-14T13:17:45;10.37;;;7.63;;
3217;SDS011;1621;49.702;8.618;2023-12-14T13:20:12;11.63;;;8.50;;
3217;SDS011;1621;49.702;8.618;2023-12-14T13:22:38;10.20;;;7.33;;
3217;SDS011;1621;49.702;8.618;2023-12-14T13:25:04;11.07;;;7.77;;
3217;SDS011;1621;49.702;8.618;2023-12-14T13:27:31;11.67;;;8.60;;
3217;SDS011;1621;49.702;8.618;2023-12-14T13:29:59;11.60;;;8.13;;
3217;SDS011;1621;49.702;8.618;2023-12-14T13:32:25;10.20;;;8.23;;
3217;SDS011;1621;49.702;8.618;2023-12-14T13:34:51;14.00;;;8.27;;
3217;SDS011;1621;49.702;8.618;2023-12-14T13:37:17;10.17;;;7.07;;
3217;SDS011;1621;49.702;8.618;2023-12-14T13:39:44;10.50;;;7.27;;
3217;SDS011;1621;49.702;8.618;2023-12-14T13:42:10;12.37;;;8.30;;
3217;SDS011;1621;49.702;8.618;2023-12-14T13:44:37;13.37;;;8.60;;
3217;SDS011;1621;49.702;8.618;2023-12-14T13:47:04;12.50;;;9.13;;
3217;SDS011;1621;49.702;8.618;2023-12-14T13:49:31;12.03;;;9.67;;
3217;SDS011;1621;49.702;8.618;2023-12-14T13:51:57;12.17;;;9.00;;
3217;SDS011;1621;49.702;8.618;2023-12-14T13:54:23;14.37;;;10.10;;
3217;SDS011;1621;49.702;8.618;2023-12-14T13:56:49;20.00;;;12.93;;
3217;SDS011;1621;49.702;8.618;2023-12-14T13:59:15;15.37;;;10.73;;
3217;SDS011;1621;49.702;8.618;2023-12-14T14:01:42;29.90;;;19.43;;
3217;SDS011;1621;49.702;8.618;2023-12-14T14:04:09;31.50;;;19.97;;
3217;SDS011;1621;49.702;8.618;2023-12-14T14:06:36;31.93;;;21.30;;
3217;SDS011;1621;49.702;8.618;2023-12-14T14:09:02;21.90;;;14.60;;
3217;SDS011;1621;49.702;8.618;2023-12-14T14:11:29;16.00;;;11.20;;
3217;SDS011;1621;49.702;8.618;2023-12-14T14:13:56;14.80;;;10.50;;
3217;SDS011;1621;49.702;8.618;2023-12-14T14:16:22;13.50;;;9.60;;
3217;SDS011;1621;49.702;8.618;2023-12-14T14:18:49;16.77;;;12.67;;
3217;SDS011;1621;49.702;8.618;2023-12-14T14:21:16;13.10;;;9.10;;
3217;SDS011;1621;49.702;8.618;2023-12-14T14:23:43;11.23;;;8.23;;
3217;SDS011;1621;49.702;8.618;2023-12-14T14:26:09;12.07;;;8.70;;
3217;SDS011;1621;49.702;8.618;2023-12-14T14:28:35;13.13;;;8.20;;
3217;SDS011;1621;49.702;8.618;2023-12-14T14:31:02;11.53;;;8.10;;
3217;SDS011;1621;49.702;8.618;2023-12-14T14:33:28;10.87;;;7.90;;
3217;SDS011;1621;49.702;8.618;2023-12-14T14:35:54;9.97;;;7.40;;
3217;SDS011;1621;49.702;8.618;2023-12-14T14:38:22;10.70;;;7.50;;
3217;SDS011;1621;49.702;8.618;2023-12-14T14:40:48;10.03;;;7.00;;
3217;SDS011;1621;49.702;8.618;2023-12-14T14:43:14;9.60;;;6.63;;
3217;SDS011;1621;49.702;8.618;2023-12-14T14:45:41;9.23;;;6.33;;
3217;SDS011;1621;49.702;8.618;2023-12-14T14:48:09;10.00;;;7.23;;
3217;SDS011;1621;49.702;8.618;2023-12-14T14:50:35;8.80;;;6.50;;
3217;SDS011;1621;49.702;8.618;2023-12-14T14:53:01;11.87;;;7.03;;